Kezdőlap
METAR-TAF:

METAR-TAF

Repülőterek :

Magyarhradis, Csehország

földrajzi szélesség: 49-01-46N, földrajzi hosszúság: 017-26-23E, magasság: 177 m

Jelenlegi meteorológiai megfigyelések

A jelentés 53 perccel ezelõtt készült, 13:00 UTC
Különbözõ irányokból fújó szél 2 kt
Hőmérséklet 27°C
Páratartalom 45%
Légköri nyomás 1011 hPa
Látótávolság 10 km, vagy több
felhőtlen 1500 m magasságban, és nincs gomolyfelhõ

METAR: LKKU 141300Z VRB02KT CAVOK 27/14 Q1011

Idő: 15:53 (13:53 UTC)


TAF: hiányzik

Meteorológiai megfigyelések és előrejelzések több, mint 4000 repülőtéren (METAR és TAF jelentéseket).

A térképen piros és sárga pontok jelzik az elérhető meteorológiai állomásokat.

Mozgassa az egeret a pont fölött, hogy megjelenjen az állomás neve.

Azután kattintson az időjárási megfigyelések és előrejelzések megtekintéséhez.

A térkép megváltoztatása: kattintson a fekete keresztel jelölt zöld gombra ráközelítéshez, a vonallal jelölt zöld gombra távolításhoz, vagy a zöld nyilakra a szomszédos térképek eléréséhez.


METAR-TAF: